CheckWX is a tool to help pilots better visualize weather data.  It is not intended as a substitute for an official pre-flight weather briefing.

10:56:28 UTC

EGLL METAR
London Heathrow Airport
London, United Kingdom
Current

1 hour ago

EGLL 060950Z AUTO 26006KT 9999 SCT033 BKN041 12/10 Q1016 NOSIG
Observed
Apr-6 @ 09:50 UTC
Wind
  • 260° at 6 KTS
Visibility
10,000+ meters
Flight Rules
VFR
Cloud Levels
  • Scattered at 3,300' AGL
  • Broken at 4,100' AGL
Temperature
12°C / 54°F
Dewpoint
10°C / 50°F
Humidity
88%
Altimeter
30" Hg
Pressure
1015.92 hPa
Previous

2 hours ago

EGLL 060920Z AUTO 27007KT 9999 OVC024 11/09 Q1016 NOSIG
Observed
Apr-6 @ 09:20 UTC
Wind
  • 270° at 7 KTS
Visibility
10,000+ meters
Flight Rules
MVFR
Cloud Levels
  • Overcast at 2,400' AGL
Temperature
11°C / 52°F
Dewpoint
C / 48°F
Humidity
88%
Altimeter
30" Hg
Pressure
1015.92 hPa
Previous

2 hours ago

EGLL 060850Z AUTO 27004KT 250V310 9999 -RA OVC022 11/09 Q1015
Observed
Apr-6 @ 08:50 UTC
Wind
  • 270° at 4 KTS
Visibility
10,000+ meters
Flight Rules
MVFR
Conditions
Light Rain
Cloud Levels
  • Overcast at 2,200' AGL
Temperature
11°C / 52°F
Dewpoint
C / 48°F
Humidity
88%
Altimeter
29.97" Hg
Pressure
1014.92 hPa